San Mateo, CA (94497)

10:08 PM PDT on July 01, 2015 (GMT -0700)
Aragon High School | | Change Station
CLOSE
Current Station
Personal Weather Station
Location: San Mateo, CA
Elevation: 150 ft
Nearby Weather Stations

Elev 150 ft 37.55 °N, 122.33 °W | Updated 9 seconds ago

Mostly Cloudy
Mostly Cloudy
68.9 °F
Feels Like 68.9 °F
N
0.0
Wind Variable Wind from East
Gusts 2.0 mph

Today
High -- | Low -- °F
--% Chance of Precip.
Yesterday
High -- | Low -- °F
Precip. -- in
5:51 AM 8:34 PM
Full, 100% visible
Pressure 29.90 in
Visibility 10.0 miles
Clouds Few 600 ft
Scattered Clouds 12000 ft
Mostly Cloudy 17000 ft
Dew Point 58 °F
Humidity 69%
Rainfall 0.00 in
Snow Depth Not available.
UV 0 out of 12
Pollen 5.50 out of 12
Air Quality Not available.
Flu Activity Not available.
METAR KSFO 020456Z 30013KT 10SM FEW006 SCT120 BKN170 16/13 A2990 RMK AO2 SLP125 T01610133

More Conditions Fewer Conditions

Pressure 29.90 in
Visibility 10.0 miles
Clouds Few 600 ft
Scattered Clouds 12000 ft
Mostly Cloudy 17000 ft
Dew Point 58 °F
Humidity 69%
Rainfall 0.00 in
Snow Depth Not available.
UV 0 out of 12
Pollen 5.50 out of 12
Air Quality Not available.
Flu Activity Not available.
METAR KSFO 020456Z 30013KT 10SM FEW006 SCT120 BKN170 16/13 A2990 RMK AO2 SLP125 T01610133

More Conditions Fewer Conditions

10-Day Weather Forecast

×

Almanac

Astronomy

Jul. 01, 2015 Rise Set
Actual Time
Civil Twilight
Nautical Twilight
Astronomical Twilight
Moon
Length of Visible Light
Length of Day
Tomorrow will be .
, % of the Moon is Illuminated

Today's Extremes

State Highs State Lows

Community

WunderPhotos

Upload Photos

1,834,420 photos uploaded!

WunderBlogs® & News

Nearby

Air Quality

  Air Quality AQ Index Pollutant
Not available.

Snow Depth

Station Depth Elevation

Earthquake Activity

City Distance Mag. Time & Date
Minimum magnitude displayed is 2.5.

Coastal Water Temperatures

Place Temperature

Stations

Nearby Weather Stations

Station Location Temp. Windchill Dew Point Humidity Wind Precip. Elev Updated Type